Time;durP1;ratioP1;P1;durP2;ratioP2;P2;SDS_P1;SDS_P2;PMS_P1;PMS_P2;Temp;Humidity;BMP_temperature;BMP_pressure;BME280_temperature;BME280_humidity;BME280_pressure;Samples;Min_cycle;Max_cycle;Signal;HPM_P1;HPM_P2
2022/03/28 00:00:19;;;;;;;18.40;13.50;;;10.40;64.30;;;;;;6213110;23;20418;-88
2022/03/28 00:02:50;;;;;;;21.50;14.13;;;10.30;63.60;;;;;;6210446;23;20401;-88
2022/03/28 00:05:17;;;;;;;18.53;13.73;;;10.30;64.40;;;;;;6190547;23;20489;-88
2022/03/28 00:07:45;;;;;;;17.63;13.57;;;10.20;64.70;;;;;;6214494;23;20431;-88
2022/03/28 00:10:13;;;;;;;18.40;13.23;;;10.20;65.00;;;;;;6213376;23;20410;-88
2022/03/28 00:12:40;;;;;;;21.00;14.73;;;10.10;65.10;;;;;;6209691;23;20405;-90
2022/03/28 00:15:09;;;;;;;20.40;14.90;;;10.10;65.00;;;;;;6214224;23;20497;-89
2022/03/28 00:17:36;;;;;;;21.07;14.57;;;10.10;65.00;;;;;;6208876;23;20414;-89
2022/03/28 00:20:03;;;;;;;18.57;14.60;;;10.10;64.90;;;;;;6194634;23;20408;-90
2022/03/28 00:22:30;;;;;;;17.83;13.90;;;10.10;64.70;;;;;;6197856;23;20402;-89
2022/03/28 00:24:58;;;;;;;21.40;15.00;;;10.10;64.70;;;;;;6213619;23;20393;-90
2022/03/28 00:27:44;;;;;;;15.37;12.20;;;10.10;65.00;;;;;;6213839;23;20410;-90
2022/03/28 00:30:12;;;;;;;17.90;13.93;;;10.10;64.90;;;;;;6213254;23;20457;-90
2022/03/28 00:32:38;;;;;;;17.20;14.30;;;10.10;64.60;;;;;;6196531;23;20670;-90
2022/03/28 00:35:06;;;;;;;16.50;14.63;;;10.10;64.60;;;;;;6194367;23;20408;-90
2022/03/28 00:37:33;;;;;;;21.63;14.47;;;10.00;64.80;;;;;;6200391;23;20410;-91
2022/03/28 00:40:01;;;;;;;20.27;14.93;;;9.90;66.20;;;;;;6193482;23;20405;-90
2022/03/28 00:42:28;;;;;;;20.90;14.43;;;9.90;66.60;;;;;;6199335;23;20461;-90
2022/03/28 00:44:55;;;;;;;21.10;14.47;;;9.80;66.60;;;;;;6214465;23;20394;-89
2022/03/28 00:47:21;;;;;;;20.80;14.90;;;9.60;67.40;;;;;;6199245;23;20433;-90
2022/03/28 00:49:48;;;;;;;19.00;13.60;;;9.60;67.80;;;;;;6191976;23;20900;-90
2022/03/28 00:52:15;;;;;;;22.87;14.10;;;9.50;67.70;;;;;;6190479;23;20471;-90
2022/03/28 00:54:42;;;;;;;18.90;13.47;;;9.40;68.00;;;;;;6190333;23;20889;-90
2022/03/28 00:57:10;;;;;;;16.40;13.27;;;9.50;68.10;;;;;;6188343;23;20750;-91
2022/03/28 00:59:37;;;;;;;19.93;14.03;;;9.50;67.70;;;;;;6188655;23;20750;-90
2022/03/28 01:02:06;;;;;;;19.73;13.80;;;9.50;67.70;;;;;;6187943;23;20428;-91
2022/03/28 01:04:32;;;;;;;22.13;14.27;;;9.50;67.10;;;;;;6187266;23;20416;-90
2022/03/28 01:06:59;;;;;;;19.77;15.13;;;9.60;66.50;;;;;;6186976;23;20814;-90
2022/03/28 01:09:26;;;;;;;17.97;13.50;;;9.60;66.00;;;;;;6186962;23;20519;-89
2022/03/28 01:11:54;;;;;;;17.47;13.70;;;9.50;66.10;;;;;;6187009;23;20416;-90
2022/03/28 01:14:22;;;;;;;18.13;14.57;;;9.50;66.00;;;;;;6186856;23;20410;-90
2022/03/28 01:20:27;;;;;;;22.03;15.00;;;9.50;66.50;;;;;;6191455;23;20454;-90
2022/03/28 01:22:55;;;;;;;16.50;13.40;;;9.50;66.10;;;;;;6139839;23;20481;-90
2022/03/28 01:25:24;;;;;;;16.60;12.83;;;9.50;65.50;;;;;;6129181;23;20945;-91
2022/03/28 01:27:52;;;;;;;17.37;13.30;;;9.50;65.30;;;;;;6126032;23;20451;-91
2022/03/28 01:30:20;;;;;;;22.27;13.07;;;9.50;65.50;;;;;;6158896;23;20410;-90
2022/03/28 01:32:47;;;;;;;24.10;14.90;;;9.40;65.60;;;;;;6211037;23;20454;-90
2022/03/28 01:35:13;;;;;;;18.57;13.73;;;9.40;65.50;;;;;;6192765;23;20797;-90
2022/03/28 01:37:40;;;;;;;20.30;12.60;;;9.40;65.80;;;;;;6205673;23;20489;-90
2022/03/28 01:40:10;;;;;;;20.80;14.77;;;9.30;66.00;;;;;;6202220;23;20412;-91
2022/03/28 01:42:36;;;;;;;18.33;14.53;;;9.20;66.70;;;;;;6189631;23;20394;-90
2022/03/28 01:45:03;;;;;;;20.47;13.90;;;9.10;66.80;;;;;;6187087;23;20413;-90
2022/03/28 01:47:30;;;;;;;20.50;14.50;;;9.10;67.00;;;;;;6187177;23;20425;-91
2022/03/28 01:49:57;;;;;;;21.93;14.43;;;9.10;67.00;;;;;;6188061;23;20441;-90
2022/03/28 01:52:24;;;;;;;18.13;14.43;;;9.10;66.20;;;;;;6189196;23;20418;-90
2022/03/28 01:54:50;;;;;;;18.70;14.23;;;9.10;66.50;;;;;;6188335;23;20592;-90
2022/03/28 01:57:18;;;;;;;17.63;14.30;;;9.10;66.70;;;;;;6189570;23;20421;-90
2022/03/28 01:59:45;;;;;;;18.20;13.63;;;9.10;66.40;;;;;;6190270;23;20413;-90
2022/03/28 02:02:12;;;;;;;19.60;13.53;;;9.10;65.50;;;;;;6187411;23;20816;-91
2022/03/28 02:04:39;;;;;;;24.37;16.07;;;9.10;64.90;;;;;;6188370;23;20905;-90
2022/03/28 02:07:05;;;;;;;23.80;15.20;;;9.00;65.20;;;;;;6202924;23;20513;-90
2022/03/28 02:09:32;;;;;;;21.10;15.10;;;9.00;65.60;;;;;;6207789;23;20452;-90
2022/03/28 02:11:59;;;;;;;18.20;13.57;;;8.90;66.20;;;;;;6212804;23;20572;-89
2022/03/28 02:14:27;;;;;;;21.53;15.60;;;8.90;66.50;;;;;;6201723;23;20394;-90
2022/03/28 02:16:54;;;;;;;20.63;16.07;;;9.00;66.80;;;;;;6188346;23;20426;-90
2022/03/28 02:19:20;;;;;;;23.87;15.43;;;8.90;66.50;;;;;;6199968;23;20418;-91
2022/03/28 02:21:47;;;;;;;21.50;14.10;;;8.90;66.70;;;;;;6188492;23;20425;-91
2022/03/28 02:24:14;;;;;;;22.03;16.20;;;8.80;66.70;;;;;;6206116;23;20394;-89
2022/03/28 02:26:41;;;;;;;20.30;16.00;;;8.70;66.90;;;;;;6213260;23;20493;-89
2022/03/28 02:29:07;;;;;;;19.57;14.53;;;8.60;67.20;;;;;;6195967;23;20434;-90
2022/03/28 02:31:35;;;;;;;16.97;13.00;;;8.60;67.10;;;;;;6188497;23;20389;-90
2022/03/28 02:34:02;;;;;;;18.73;14.60;;;8.50;67.30;;;;;;6187763;23;20402;-89
2022/03/28 02:36:29;;;;;;;23.00;14.13;;;8.50;67.50;;;;;;6192879;23;20434;-89
2022/03/28 02:38:56;;;;;;;20.53;14.73;;;8.50;67.40;;;;;;6201321;23;20485;-90
2022/03/28 02:41:22;;;;;;;19.23;13.73;;;8.50;67.80;;;;;;6187786;23;20406;-90
2022/03/28 02:43:49;;;;;;;22.97;14.70;;;8.40;68.20;;;;;;6188902;23;20737;-90
2022/03/28 02:46:16;;;;;;;18.40;14.17;;;8.40;68.50;;;;;;6185241;23;20410;-89
2022/03/28 02:48:44;;;;;;;20.27;14.70;;;8.30;68.50;;;;;;6183794;23;20446;-89
2022/03/28 02:51:11;;;;;;;23.07;15.03;;;8.20;68.50;;;;;;6183454;23;20477;-90
2022/03/28 02:53:38;;;;;;;22.80;13.17;;;8.20;68.50;;;;;;6188123;23;20888;-90
2022/03/28 02:56:05;;;;;;;23.00;14.77;;;8.30;68.90;;;;;;6184284;23;20422;-90
2022/03/28 02:58:32;;;;;;;25.97;15.80;;;8.30;68.40;;;;;;6186507;23;20405;-89
2022/03/28 03:00:59;;;;;;;22.40;14.00;;;8.20;68.30;;;;;;6206790;23;20394;-88
2022/03/28 03:03:26;;;;;;;21.90;14.60;;;8.20;68.20;;;;;;6213877;23;20404;-89
2022/03/28 03:05:54;;;;;;;15.80;14.10;;;8.20;68.90;;;;;;6213417;23;20501;-89
2022/03/28 03:08:21;;;;;;;19.60;14.33;;;8.10;68.90;;;;;;6213358;23;20446;-89
2022/03/28 03:10:47;;;;;;;24.87;14.00;;;8.00;69.00;;;;;;6213990;23;20404;-89
2022/03/28 03:13:14;;;;;;;25.23;15.33;;;8.00;68.90;;;;;;6212207;23;20394;-90
2022/03/28 03:15:41;;;;;;;21.63;13.57;;;8.00;68.80;;;;;;6211609;23;20449;-90
2022/03/28 03:18:07;;;;;;;26.20;14.63;;;8.00;69.20;;;;;;6214000;23;20457;-90
2022/03/28 03:20:34;;;;;;;17.37;13.47;;;7.90;69.70;;;;;;6213386;23;20397;-89
2022/03/28 03:23:03;;;;;;;25.90;16.27;;;7.90;69.50;;;;;;6212980;23;20410;-89
2022/03/28 03:25:30;;;;;;;19.33;13.43;;;7.90;69.70;;;;;;6210601;23;20429;-90
2022/03/28 03:27:57;;;;;;;21.50;13.10;;;7.90;69.20;;;;;;6197450;23;20403;-90
2022/03/28 03:30:24;;;;;;;20.33;14.20;;;7.90;69.50;;;;;;6190117;23;20511;-91
2022/03/28 03:32:51;;;;;;;20.50;13.90;;;7.90;69.30;;;;;;6188871;23;20413;-90
2022/03/28 03:35:17;;;;;;;17.43;13.23;;;7.80;69.60;;;;;;6188124;23;20735;-90
2022/03/28 03:37:44;;;;;;;21.97;13.90;;;7.80;69.60;;;;;;6186998;23;20414;-91
2022/03/28 03:40:13;;;;;;;17.00;13.67;;;7.80;69.60;;;;;;6188584;23;20402;-91
2022/03/28 03:42:41;;;;;;;21.37;15.00;;;7.70;69.80;;;;;;6187089;23;20417;-90
2022/03/28 03:45:09;;;;;;;22.67;14.50;;;7.60;70.10;;;;;;6187871;23;20410;-90
2022/03/28 03:47:36;;;;;;;22.37;14.50;;;7.60;70.10;;;;;;6188145;23;20405;-89
2022/03/28 03:50:04;;;;;;;20.13;13.90;;;7.50;70.30;;;;;;6191032;23;20441;-90
2022/03/28 03:52:31;;;;;;;17.80;13.33;;;7.50;70.90;;;;;;6190906;23;20497;-91
2022/03/28 03:54:58;;;;;;;16.57;13.93;;;7.50;70.80;;;;;;6191359;23;20751;-90
2022/03/28 03:57:27;;;;;;;17.40;14.00;;;7.50;70.30;;;;;;6188962;23;20432;-90
2022/03/28 03:59:53;;;;;;;18.20;13.33;;;7.50;70.10;;;;;;6203851;23;20386;-90
2022/03/28 04:02:20;;;;;;;17.93;12.70;;;7.40;70.10;;;;;;6212661;23;20411;-90
2022/03/28 04:04:47;;;;;;;15.63;12.20;;;7.40;70.50;;;;;;6206672;23;20412;-90
2022/03/28 04:07:14;;;;;;;22.47;13.70;;;7.40;70.60;;;;;;6199029;23;20517;-89
2022/03/28 04:09:41;;;;;;;17.70;12.17;;;7.30;70.60;;;;;;6200003;23;20442;-90
2022/03/28 04:12:09;;;;;;;26.83;14.93;;;7.30;70.70;;;;;;6193502;23;20761;-90
2022/03/28 04:14:37;;;;;;;23.97;14.57;;;7.30;71.00;;;;;;6200658;23;20493;-90
2022/03/28 04:17:04;;;;;;;19.97;12.73;;;7.30;71.30;;;;;;6199458;23;20731;-90
2022/03/28 04:19:31;;;;;;;20.17;13.57;;;7.30;71.40;;;;;;6199085;23;20418;-90
2022/03/28 04:21:58;;;;;;;18.13;13.60;;;7.20;71.20;;;;;;6203622;23;20409;-90
2022/03/28 04:24:24;;;;;;;27.70;14.27;;;7.20;71.10;;;;;;6195189;23;20416;-90
2022/03/28 04:26:51;;;;;;;21.37;12.83;;;7.20;71.20;;;;;;6191589;23;20931;-90
2022/03/28 04:29:18;;;;;;;23.50;13.53;;;7.20;71.30;;;;;;6192563;23;20722;-90
2022/03/28 04:31:46;;;;;;;18.73;13.80;;;7.20;70.70;;;;;;6207632;23;20397;-90
2022/03/28 04:34:13;;;;;;;20.73;14.43;;;7.20;70.70;;;;;;6214674;23;20452;-89
2022/03/28 04:36:40;;;;;;;18.50;14.13;;;7.10;70.90;;;;;;6213835;23;20425;-89
2022/03/28 04:39:06;;;;;;;16.13;11.93;;;7.10;70.90;;;;;;6206822;23;20517;-89
2022/03/28 04:41:33;;;;;;;17.70;13.73;;;7.10;71.00;;;;;;6194045;23;20425;-89
2022/03/28 04:44:00;;;;;;;26.13;17.40;;;7.00;71.10;;;;;;6192581;23;20908;-90
2022/03/28 04:46:27;;;;;;;23.50;15.07;;;7.00;71.30;;;;;;6192027;23;20428;-90
2022/03/28 04:48:55;;;;;;;21.10;12.77;;;6.90;71.60;;;;;;6195693;23;20948;-91
2022/03/28 04:51:21;;;;;;;21.37;14.47;;;6.90;71.70;;;;;;6213404;23;20411;-90
2022/03/28 04:53:48;;;;;;;19.37;13.80;;;6.80;71.70;;;;;;6197966;23;20424;-90
2022/03/28 04:56:15;;;;;;;23.30;13.90;;;6.80;71.90;;;;;;6192469;23;20925;-89
2022/03/28 04:58:42;;;;;;;22.97;13.57;;;6.80;72.30;;;;;;6191386;23;20409;-90
2022/03/28 05:01:09;;;;;;;19.93;13.83;;;6.70;72.40;;;;;;6189349;23;20413;-91
2022/03/28 05:03:36;;;;;;;18.20;13.33;;;6.70;72.60;;;;;;6190177;23;20749;-90
2022/03/28 05:06:04;;;;;;;22.53;15.77;;;6.70;72.50;;;;;;6199222;23;20454;-90
2022/03/28 05:08:31;;;;;;;20.20;14.27;;;6.70;72.50;;;;;;6188499;23;20762;-90
2022/03/28 05:10:58;;;;;;;19.90;13.20;;;6.70;72.10;;;;;;6190118;23;20434;-89
2022/03/28 05:13:25;;;;;;;17.37;11.77;;;6.70;72.00;;;;;;6189099;23;20412;-90
2022/03/28 05:15:52;;;;;;;19.23;13.33;;;6.70;71.90;;;;;;6188312;23;20421;-90
2022/03/28 05:18:19;;;;;;;23.33;14.97;;;6.70;72.40;;;;;;6188466;23;20428;-90
2022/03/28 05:20:45;;;;;;;23.40;16.00;;;6.70;72.00;;;;;;6188475;23;20411;-90
2022/03/28 05:23:14;;;;;;;24.00;13.90;;;6.70;72.30;;;;;;6188530;23;20409;-90
2022/03/28 05:25:40;;;;;;;18.90;14.93;;;6.70;72.30;;;;;;6189607;23;20441;-90
2022/03/28 05:28:08;;;;;;;26.70;15.47;;;6.70;72.30;;;;;;6198074;23;20409;-90
2022/03/28 05:30:34;;;;;;;23.90;15.10;;;6.70;72.30;;;;;;6205609;23;20433;-90
2022/03/28 05:33:02;;;;;;;24.70;15.43;;;6.70;72.40;;;;;;6186683;23;20416;-90
2022/03/28 05:35:35;;;;;;;27.10;15.30;;;6.70;72.10;;;;;;6190565;23;20442;-89
2022/03/28 05:38:02;;;;;;;21.27;13.50;;;6.70;72.00;;;;;;6201825;23;20428;-89
2022/03/28 05:40:30;;;;;;;26.90;14.10;;;6.70;71.90;;;;;;6200977;23;20484;-90
2022/03/28 05:42:57;;;;;;;20.73;14.07;;;6.70;71.70;;;;;;6189130;23;20496;-90
2022/03/28 05:45:26;;;;;;;27.93;15.30;;;6.80;71.60;;;;;;6189076;23;20425;-89
2022/03/28 05:47:58;;;;;;;23.37;14.87;;;6.80;72.80;;;;;;6189545;23;20425;-88
2022/03/28 05:50:25;;;;;;;26.87;15.70;;;6.80;71.70;;;;;;6197264;23;20480;-90
2022/03/28 05:52:52;;;;;;;22.47;15.60;;;6.90;71.60;;;;;;6201483;23;20409;-89
2022/03/28 05:55:19;;;;;;;24.30;15.63;;;6.90;71.80;;;;;;6210502;23;20402;-89
2022/03/28 05:57:47;;;;;;;19.73;14.27;;;6.90;71.80;;;;;;6193696;23;20405;-89
2022/03/28 06:00:20;;;;;;;25.00;13.67;;;6.90;71.60;;;;;;6187854;23;20414;-89
2022/03/28 06:02:47;;;;;;;21.20;15.23;;;6.90;71.30;;;;;;6186920;23;20394;-89
2022/03/28 06:05:14;;;;;;;26.53;15.87;;;7.00;71.20;;;;;;6187218;23;20417;-89
2022/03/28 06:07:41;;;;;;;25.23;15.93;;;7.00;71.40;;;;;;6190897;23;20408;-89
2022/03/28 06:10:11;;;;;;;24.37;14.83;;;7.00;71.30;;;;;;6188584;23;20441;-89
2022/03/28 06:12:38;;;;;;;21.60;15.80;;;7.10;71.00;;;;;;6185818;23;20409;-89
2022/03/28 06:15:07;;;;;;;24.70;16.27;;;7.00;70.80;;;;;;6187889;23;20755;-89
2022/03/28 06:17:34;;;;;;;22.27;14.27;;;7.00;71.10;;;;;;6193944;23;20441;-85
2022/03/28 06:20:03;;;;;;;24.83;15.10;;;7.00;71.20;;;;;;6190038;23;20497;-85
2022/03/28 06:22:30;;;;;;;23.07;15.30;;;7.00;71.50;;;;;;6185832;23;20412;-84
2022/03/28 06:24:57;;;;;;;21.63;14.60;;;7.10;71.30;;;;;;6188988;23;20413;-85
2022/03/28 06:27:24;;;;;;;24.57;16.23;;;7.20;71.10;;;;;;6187442;23;20422;-85
2022/03/28 06:29:51;;;;;;;25.47;14.30;;;7.20;70.50;;;;;;6189323;23;20468;-88
2022/03/28 06:32:30;;;;;;;18.50;14.23;;;7.30;70.60;;;;;;6186622;23;20421;-88
2022/03/28 06:35:11;;;;;;;24.30;15.00;;;7.30;70.00;;;;;;6187192;23;20399;-88
2022/03/28 06:55:33;;;;;;;23.13;15.17;;;7.90;67.10;;;;;;6189598;23;20473;-85
2022/03/28 07:00:50;;;;;;;19.37;13.90;;;8.00;66.70;;;;;;6171282;23;20414;-86
2022/03/28 07:03:18;;;;;;;21.53;13.40;;;8.20;66.30;;;;;;6201601;23;20406;-86
2022/03/28 07:05:45;;;;;;;21.30;14.90;;;8.30;66.00;;;;;;6206701;23;20410;-85
2022/03/28 07:08:12;;;;;;;21.30;14.17;;;8.30;65.50;;;;;;6201501;23;20413;-85
2022/03/28 07:10:40;;;;;;;23.80;15.87;;;8.50;65.00;;;;;;6198182;23;20442;-85
2022/03/28 07:13:08;;;;;;;20.23;15.50;;;8.50;64.70;;;;;;6198065;23;20400;-85
2022/03/28 07:15:35;;;;;;;23.93;15.60;;;8.60;64.50;;;;;;6198515;23;20394;-85
2022/03/28 07:18:06;;;;;;;32.20;15.73;;;8.70;64.20;;;;;;6202171;23;20402;-85
2022/03/28 07:20:34;;;;;;;22.90;15.80;;;8.80;63.90;;;;;;6199882;23;20980;-86
2022/03/28 07:23:01;;;;;;;22.90;15.20;;;9.00;63.50;;;;;;6200105;23;20413;-86
2022/03/28 07:25:29;;;;;;;20.73;14.07;;;9.10;63.40;;;;;;6204912;23;20452;-86
2022/03/28 07:27:57;;;;;;;21.23;13.63;;;9.20;63.00;;;;;;6208998;23;20410;-86
2022/03/28 07:30:26;;;;;;;18.43;14.57;;;9.50;62.60;;;;;;6209628;23;20454;-86
2022/03/28 07:32:54;;;;;;;20.77;14.03;;;10.20;59.90;;;;;;6208157;23;20406;-86
2022/03/28 07:35:21;;;;;;;23.83;14.37;;;11.00;58.10;;;;;;6202901;23;20406;-86
2022/03/28 07:37:48;;;;;;;20.97;16.00;;;11.50;56.60;;;;;;6198173;23;20407;-86
2022/03/28 07:40:16;;;;;;;28.80;16.63;;;11.90;55.60;;;;;;6197802;23;20425;-85
2022/03/28 07:42:43;;;;;;;30.27;16.33;;;12.20;55.10;;;;;;6198391;23;20951;-85
2022/03/28 07:45:11;;;;;;;22.10;14.77;;;12.10;54.90;;;;;;6198416;23;20400;-87
2022/03/28 07:47:39;;;;;;;24.50;15.70;;;12.40;54.90;;;;;;6199895;23;20505;-85
2022/03/28 07:50:07;;;;;;;24.10;16.10;;;12.70;53.80;;;;;;6207061;23;20453;-84
2022/03/28 07:52:34;;;;;;;23.03;15.90;;;13.20;52.70;;;;;;6197402;23;20409;-85
2022/03/28 07:55:01;;;;;;;23.97;16.67;;;13.60;52.00;;;;;;6200756;23;20445;-85
2022/03/28 07:57:28;;;;;;;22.90;16.67;;;14.00;51.40;;;;;;6204811;23;20410;-85
2022/03/28 07:59:55;;;;;;;24.40;17.63;;;14.40;50.30;;;;;;6190976;23;20414;-85
2022/03/28 08:02:24;;;;;;;22.47;17.33;;;15.10;50.00;;;;;;6188963;23;20400;-85
2022/03/28 08:04:52;;;;;;;25.80;17.73;;;15.70;48.70;;;;;;6206573;23;20395;-85
2022/03/28 08:07:18;;;;;;;28.47;18.33;;;15.90;47.50;;;;;;6210381;23;20410;-87
2022/03/28 08:09:45;;;;;;;23.63;17.73;;;15.80;47.60;;;;;;6209784;23;20435;-85
2022/03/28 08:12:12;;;;;;;19.67;17.53;;;15.80;47.00;;;;;;6211341;23;20408;-85
2022/03/28 08:14:39;;;;;;;24.33;18.10;;;16.40;47.20;;;;;;6200294;23;20392;-85
2022/03/28 08:17:07;;;;;;;29.00;18.93;;;16.70;46.70;;;;;;6209473;23;20409;-84
2022/03/28 08:19:33;;;;;;;27.17;18.23;;;15.90;45.70;;;;;;6212395;23;20427;-85
2022/03/28 08:22:01;;;;;;;24.00;17.97;;;16.40;46.70;;;;;;6199804;23;20402;-86
2022/03/28 08:24:28;;;;;;;21.33;18.87;;;16.80;45.70;;;;;;6197379;23;20405;-86
2022/03/28 08:26:55;;;;;;;25.33;18.90;;;16.80;45.10;;;;;;6196626;23;20406;-85
2022/03/28 08:29:22;;;;;;;21.10;17.90;;;16.40;45.30;;;;;;6198343;23;20414;-86
2022/03/28 08:31:49;;;;;;;24.37;18.80;;;16.70;45.80;;;;;;6197486;23;20441;-86
2022/03/28 08:34:16;;;;;;;21.03;18.40;;;17.30;45.20;;;;;;6202515;23;20441;-86
2022/03/28 08:36:43;;;;;;;23.03;17.20;;;18.00;44.00;;;;;;6197735;23;20413;-87
2022/03/28 08:39:11;;;;;;;29.60;18.33;;;18.20;43.30;;;;;;6196639;23;20414;-86
2022/03/28 08:41:38;;;;;;;24.97;16.83;;;18.80;43.30;;;;;;6205203;23;20401;-86
2022/03/28 08:44:05;;;;;;;23.60;17.70;;;19.70;41.90;;;;;;6203779;23;20406;-86
2022/03/28 08:46:32;;;;;;;30.27;21.03;;;20.30;40.30;;;;;;6195220;23;20410;-86
2022/03/28 08:49:00;;;;;;;21.10;17.83;;;20.80;39.40;;;;;;6195719;23;20419;-86
2022/03/28 08:51:28;;;;;;;24.83;18.93;;;21.50;39.10;;;;;;6193823;23;20494;-86
2022/03/28 08:53:55;;;;;;;24.40;18.93;;;22.20;37.60;;;;;;6194685;23;20417;-86
2022/03/28 08:56:23;;;;;;;22.57;18.40;;;22.70;36.50;;;;;;6203543;23;20420;-86
2022/03/28 08:58:50;;;;;;;20.43;18.20;;;23.30;35.20;;;;;;6199250;23;20408;-86
2022/03/28 09:01:18;;;;;;;23.83;18.90;;;23.00;35.60;;;;;;6203207;23;20432;-87
2022/03/28 09:03:47;;;;;;;23.73;19.73;;;22.70;35.50;;;;;;6206174;23;20399;-86
2022/03/28 09:06:31;;;;;;;25.73;20.07;;;23.60;35.80;;;;;;6203116;23;20422;-86
2022/03/28 09:09:11;;;;;;;22.97;20.03;;;24.80;34.40;;;;;;6205710;23;20439;-87
2022/03/28 09:11:39;;;;;;;24.03;20.90;;;25.60;33.00;;;;;;6200847;23;20471;-87
2022/03/28 09:14:06;;;;;;;21.97;18.93;;;26.60;31.70;;;;;;6202158;23;20414;-86
2022/03/28 09:16:34;;;;;;;22.13;19.93;;;26.80;30.80;;;;;;6200220;23;20410;-87
2022/03/28 09:19:08;;;;;;;23.20;19.33;;;26.70;30.20;;;;;;6196623;23;20418;-86
2022/03/28 09:21:35;;;;;;;24.20;19.27;;;27.90;29.80;;;;;;6192113;23;20449;-87
2022/03/28 09:24:04;;;;;;;28.53;22.17;;;28.70;29.00;;;;;;6191525;23;20497;-87
2022/03/28 09:26:32;;;;;;;23.77;21.13;;;27.70;28.20;;;;;;6191307;23;20411;-87
2022/03/28 09:29:01;;;;;;;22.77;20.37;;;28.50;28.60;;;;;;6193632;23;20445;-87
2022/03/28 09:31:31;;;;;;;24.83;20.77;;;29.60;27.20;;;;;;6192280;23;20466;-86
2022/03/28 09:34:04;;;;;;;22.77;20.33;;;27.80;27.20;;;;;;6190076;23;20403;-87
2022/03/28 09:36:47;;;;;;;21.40;19.00;;;29.00;27.20;;;;;;6189965;23;20406;-87
2022/03/28 09:39:18;;;;;;;20.03;18.10;;;29.60;25.90;;;;;;6190004;23;20409;-87
2022/03/28 09:41:47;;;;;;;22.20;19.30;;;29.70;25.90;;;;;;6207089;23;20398;-87
2022/03/28 09:44:15;;;;;;;23.50;21.00;;;29.70;25.60;;;;;;6211429;23;20417;-87
2022/03/28 09:46:42;;;;;;;26.93;21.03;;;30.60;25.50;;;;;;6192657;23;20402;-87
2022/03/28 09:49:09;;;;;;;28.53;20.97;;;31.20;24.90;;;;;;6195559;23;20409;-87
2022/03/28 09:51:36;;;;;;;24.40;21.80;;;31.20;24.70;;;;;;6195121;23;20442;-87
2022/03/28 09:54:04;;;;;;;23.83;21.50;;;32.10;24.50;;;;;;6190054;23;20418;-87
2022/03/28 09:56:30;;;;;;;23.97;21.53;;;32.30;24.30;;;;;;6191786;23;20465;-84
2022/03/28 09:58:59;;;;;;;25.33;20.97;;;32.70;24.10;;;;;;6190101;23;20732;-85
2022/03/28 10:01:30;;;;;;;22.10;19.90;;;32.30;24.20;;;;;;6189560;23;20931;-86
2022/03/28 10:04:01;;;;;;;24.43;19.93;;;30.30;25.30;;;;;;6188186;23;20400;-86
2022/03/28 10:06:28;;;;;;;26.30;20.77;;;29.60;26.50;;;;;;6188916;23;20473;-86
2022/03/28 10:08:55;;;;;;;27.30;22.00;;;29.90;26.20;;;;;;6188310;23;20409;-85
2022/03/28 10:11:22;;;;;;;22.63;20.30;;;31.20;26.00;;;;;;6187881;23;20848;-86
2022/03/28 10:13:49;;;;;;;23.43;20.33;;;31.40;25.70;;;;;;6188874;23;20417;-86
2022/03/28 10:16:16;;;;;;;23.77;21.23;;;32.10;25.30;;;;;;6189327;23;20409;-85
2022/03/28 10:18:46;;;;;;;24.87;22.20;;;32.40;24.80;;;;;;6188104;23;20406;-86
2022/03/28 10:21:18;;;;;;;23.40;20.90;;;33.00;24.60;;;;;;6188954;23;20425;-86
2022/03/28 10:23:50;;;;;;;27.23;23.27;;;33.50;24.00;;;;;;6188805;23;20407;-86
2022/03/28 10:26:19;;;;;;;22.83;20.50;;;33.30;23.80;;;;;;6188638;23;20402;-85
2022/03/28 10:29:01;;;;;;;23.63;21.10;;;33.80;23.40;;;;;;6206810;23;20405;-86
2022/03/28 10:31:30;;;;;;;25.17;22.57;;;34.40;23.10;;;;;;6209189;23;20438;-86
2022/03/28 10:33:58;;;;;;;23.27;20.70;;;32.40;23.80;;;;;;6201654;23;20409;-85
2022/03/28 10:36:31;;;;;;;22.77;20.63;;;32.70;23.90;;;;;;6210145;23;20410;-86
2022/03/28 10:39:31;;;;;;;24.80;20.57;;;33.80;22.80;;;;;;6196788;23;20394;-85
2022/03/28 10:42:06;;;;;;;23.07;20.67;;;34.10;22.80;;;;;;6192283;23;20386;-86
2022/03/28 10:44:44;;;;;;;22.77;20.37;;;33.30;23.10;;;;;;6192824;23;20386;-86
2022/03/28 10:47:14;;;;;;;21.07;18.60;;;35.00;22.90;;;;;;6203791;23;20392;-87
2022/03/28 10:49:44;;;;;;;21.60;19.50;;;35.50;21.80;;;;;;6194902;23;20432;-86
2022/03/28 10:52:16;;;;;;;22.77;20.70;;;35.80;21.60;;;;;;6200799;23;20772;-86
2022/03/28 10:54:43;;;;;;;21.73;19.47;;;36.40;21.10;;;;;;6199293;23;20472;-86
2022/03/28 10:57:28;;;;;;;22.07;19.90;;;36.20;20.70;;;;;;6194315;23;20394;-86
2022/03/28 11:00:05;;;;;;;22.37;20.37;;;36.60;20.40;;;;;;6190507;23;20406;-86
2022/03/28 11:02:34;;;;;;;22.50;20.10;;;37.30;20.40;;;;;;6189307;23;20405;-86
2022/03/28 11:05:14;;;;;;;21.17;19.27;;;38.10;20.10;;;;;;6198063;23;20433;-86
2022/03/28 11:07:41;;;;;;;21.10;19.13;;;38.80;19.30;;;;;;6202795;23;20404;-86
2022/03/28 11:10:12;;;;;;;21.03;19.23;;;38.50;19.50;;;;;;6194059;23;20497;-86
2022/03/28 11:12:41;;;;;;;20.77;18.93;;;38.10;19.60;;;;;;6194308;23;20444;-86
2022/03/28 11:15:16;;;;;;;20.87;18.77;;;37.00;19.80;;;;;;6209711;23;20413;-86
2022/03/28 11:17:57;;;;;;;21.83;19.93;;;37.50;20.40;;;;;;6205000;23;20420;-86
2022/03/28 11:20:27;;;;;;;24.20;21.77;;;37.40;20.10;;;;;;6191427;23;20426;-87
2022/03/28 11:22:56;;;;;;;21.33;19.27;;;37.70;20.40;;;;;;6195300;23;20398;-86
2022/03/28 11:25:31;;;;;;;23.63;21.40;;;38.10;20.10;;;;;;6196058;23;20408;-87
2022/03/28 11:28:09;;;;;;;21.90;20.00;;;38.20;19.40;;;;;;6192936;23;20393;-86
2022/03/28 11:30:39;;;;;;;22.73;20.73;;;38.40;19.50;;;;;;6192121;23;20482;-86
2022/03/28 11:33:10;;;;;;;21.67;19.37;;;38.20;19.50;;;;;;6192420;23;20390;-87
2022/03/28 11:35:40;;;;;;;21.10;19.10;;;38.30;19.60;;;;;;6190938;23;20402;-87
2022/03/28 11:38:07;;;;;;;22.07;20.00;;;38.40;19.40;;;;;;6192781;23;20434;-87
2022/03/28 11:40:40;;;;;;;20.33;18.43;;;38.00;19.10;;;;;;6192711;23;20419;-87
2022/03/28 11:43:07;;;;;;;21.90;19.57;;;37.00;19.50;;;;;;6193143;23;20833;-88
2022/03/28 11:45:34;;;;;;;23.10;20.57;;;36.60;19.40;;;;;;6195214;23;20408;-85
2022/03/28 11:48:02;;;;;;;21.70;19.43;;;35.40;20.10;;;;;;6198201;23;20402;-86
2022/03/28 11:50:31;;;;;;;22.23;19.90;;;35.80;20.30;;;;;;6195287;23;20429;-86
2022/03/28 11:55:48;;;;;;;20.87;18.70;;;36.90;19.70;;;;;;6199066;23;20406;-85
2022/03/28 11:58:19;;;;;;;21.13;19.33;;;37.20;19.80;;;;;;6195135;23;20373;-86
2022/03/28 12:00:48;;;;;;;21.53;19.60;;;36.90;19.70;;;;;;6193569;23;20942;-86
2022/03/28 12:03:17;;;;;;;22.73;20.47;;;37.70;20.10;;;;;;6190899;23;20433;-86
2022/03/28 12:05:45;;;;;;;23.20;21.10;;;37.20;19.50;;;;;;6191845;23;20401;-86
2022/03/28 12:08:15;;;;;;;22.07;19.93;;;37.90;19.70;;;;;;6192032;23;20405;-86
2022/03/28 12:10:45;;;;;;;22.30;20.10;;;38.30;19.20;;;;;;6192157;23;20448;-86
2022/03/28 12:13:12;;;;;;;22.40;20.23;;;38.70;18.90;;;;;;6194509;23;20496;-86
2022/03/28 12:15:43;;;;;;;21.07;19.17;;;38.00;18.70;;;;;;6195479;23;20416;-86
2022/03/28 12:18:12;;;;;;;20.80;18.90;;;38.10;18.90;;;;;;6191869;23;20518;-86
2022/03/28 12:20:42;;;;;;;23.30;20.93;;;38.00;19.00;;;;;;6192295;23;20429;-86
2022/03/28 12:23:10;;;;;;;24.23;21.93;;;37.50;19.50;;;;;;6192253;23;20410;-86
2022/03/28 12:25:40;;;;;;;23.60;21.30;;;36.70;20.30;;;;;;6192078;23;20394;-86
2022/03/28 12:28:09;;;;;;;21.73;19.63;;;36.40;20.60;;;;;;6205697;23;20406;-86
2022/03/28 12:30:38;;;;;;;23.10;20.80;;;36.30;20.50;;;;;;6203240;23;20849;-83
2022/03/28 12:33:11;;;;;;;22.50;20.10;;;36.30;21.00;;;;;;6200596;23;20505;-82
2022/03/28 12:35:40;;;;;;;24.30;21.20;;;37.30;20.60;;;;;;6193682;23;20528;-84
2022/03/28 12:38:08;;;;;;;21.73;19.53;;;36.90;20.60;;;;;;6191724;23;20418;-83
2022/03/28 12:40:35;;;;;;;24.07;21.93;;;37.10;20.50;;;;;;6199995;23;20425;-82
2022/03/28 12:43:04;;;;;;;21.50;19.43;;;37.50;20.50;;;;;;6208811;23;20410;-84
2022/03/28 12:45:35;;;;;;;19.77;17.80;;;37.80;20.40;;;;;;6194410;23;20394;-82
2022/03/28 12:48:04;;;;;;;21.83;19.60;;;38.00;20.20;;;;;;6208638;23;20414;-85
2022/03/28 12:50:31;;;;;;;20.27;18.47;;;37.90;20.30;;;;;;6208361;23;20418;-83
2022/03/28 12:53:12;;;;;;;18.10;16.30;;;37.70;20.60;;;;;;6211693;23;20440;-83
2022/03/28 12:55:39;;;;;;;19.60;17.90;;;37.50;20.40;;;;;;6199649;23;20386;-82
2022/03/28 12:58:08;;;;;;;21.43;17.60;;;36.30;20.10;;;;;;6193903;23;20434;-83
2022/03/28 13:00:35;;;;;;;17.57;15.90;;;36.50;20.60;;;;;;6192195;23;20457;-83
2022/03/28 13:03:02;;;;;;;19.37;17.47;;;36.40;20.50;;;;;;6191101;23;20469;-82
2022/03/28 13:05:30;;;;;;;19.07;17.20;;;36.90;20.40;;;;;;6192819;23;20416;-82